Latest Weather Observations for Esperance Airport

IDW60801

Issued at 9:35 pm WST Tuesday 2 September 2014 (issued every 30 minutes, with the page automatically refreshed every 10 minutes)

About weather observations | Map of weather stations | Latest weather observations for WA | Other Formats
Station Details ID: 009542 Name: ESPERANCE AERO Lat: -33.68 Lon: 121.83 Height: 142.0 m
Data from the previous 72 hours. | See also: Recent months at Esperance Airport
Date/Time
WST
Temp
°C
App
Temp
°C
Dew
Point
Rel
Hum
%
Delta-T
°C
Wind Press
QNH
hPa
Press
MSL
hPa
Rain
since 9 am
mm
Dir
 
Spd
km/h
Gust
km/h
Spd
kts
Gust
kts
02/09:30pm 14.2 9.3 10.0 76 2.2 N 26 32 14 17 1017.6 1017.5 1.0
02/09:00pm 14.0 9.5 10.2 78 2.0 N 24 30 13 16 1017.8 1017.7 1.0
02/08:30pm 13.7 9.0 10.5 81 1.7 N 26 35 14 19 1017.7 1017.6 1.0
02/08:00pm 13.5 8.5 10.9 84 1.4 N 28 35 15 19 1017.6 1017.5 1.0
02/07:30pm 14.1 8.9 10.3 78 2.0 N 28 35 15 19 1017.6 1017.5 0.6
02/07:00pm 14.2 9.7 10.0 76 2.2 N 24 35 13 19 1017.0 1016.9 0.6
02/06:30pm 14.1 9.9 9.9 76 2.2 N 22 28 12 15 1016.5 1016.4 0.6
02/06:00pm 13.8 9.0 10.2 79 1.9 N 26 35 14 19 1017.1 1017.0 0.6
02/05:30pm 13.4 9.0 10.4 82 1.6 N 24 30 13 16 1017.5 1017.4 0.6
02/05:00pm 13.3 9.3 10.5 83 1.5 N 22 28 12 15 1017.8 1017.7 0.6
02/04:30pm 13.5 10.0 10.1 80 1.8 N 19 26 10 14 1017.9 1017.8 0.4
02/04:00pm 13.7 9.5 9.7 77 2.1 N 22 32 12 17 1017.7 1017.6 0.2
02/03:30pm 14.5 8.7 9.3 71 2.7 N 30 39 16 21 1016.7 1016.6 0.2
02/03:00pm 14.2 9.5 9.2 72 2.6 N 24 33 13 18 1016.8 1016.7 0.2
02/02:30pm 14.4 8.6 9.4 72 2.6 N 30 39 16 21 1017.1 1017.0 0.2
02/02:00pm 15.1 9.7 9.5 69 2.9 N 28 37 15 20 1018.3 1018.2 0.2
02/01:30pm 14.3 9.8 10.1 76 2.2 N 24 33 13 18 1018.7 1018.6 0.2
02/01:00pm 15.0 7.1 8.0 63 3.5 N 39 50 21 27 1017.5 1017.4 0.2
02/12:45pm 15.1 7.3 8.1 63 3.5 N 39 57 21 31 1017.6 1017.5 0.2
02/12:30pm 14.9 7.9 8.6 66 3.2 N 35 50 19 27 1017.7 1017.6 0.2
02/12:23pm 14.7 8.3 8.4 66 3.2 NNE 32 50 17 27 1017.5 1017.4 0.2
02/12:00pm 13.8 7.9 9.0 73 2.4 NNE 30 41 16 22 1018.8 1018.7 0.2
02/11:30am 13.0 6.9 8.3 73 2.4 N 30 44 16 24 1020.6 1020.6 0.2
02/11:00am 12.0 5.4 7.9 76 2.0 N 32 41 17 22 1021.2 1021.2 0.2
02/10:30am 11.2 4.4 7.5 78 1.8 N 33 44 18 24 1021.3 1021.3 0.2
02/10:00am 10.2 3.0 7.6 84 1.2 N 35 44 19 24 1021.5 1021.5 0.2
02/09:30am 9.9 3.0 7.2 83 1.3 NNE 33 48 18 26 1021.1 1021.1 0.0
02/09:01am 9.5 2.1 6.8 83 1.3 N 35 54 19 29 1022.1 - 0.0
02/09:00am 9.5 1.7 6.6 82 1.4 N 37 54 20 29 1022.1 1022.1 0.2
02/08:53am 9.6 2.1 6.1 79 1.6 N 35 54 19 29 1022.0 - 0.2
02/08:30am 10.0 2.0 5.8 75 1.9 N 37 52 20 28 1022.2 - 0.2
02/08:00am 9.9 2.6 5.3 73 2.1 NNE 33 44 18 24 1022.0 - 0.2
02/07:47am 9.7 2.4 5.3 74 2.0 NNE 33 52 18 28 1022.0 - 0.2
02/07:30am 9.5 2.1 5.1 74 2.0 NNE 33 43 18 23 1021.9 - 0.2
02/07:00am 9.1 1.8 4.7 74 2.0 NNE 32 43 17 23 1021.9 - 0.2
02/06:30am 8.5 2.7 4.3 75 1.9 NNE 24 37 13 20 1022.1 - 0.2
02/06:00am 8.1 2.7 4.3 77 1.7 NNE 22 32 12 17 1022.2 1022.2 0.2
02/05:30am 8.1 2.7 4.3 77 1.7 NNE 22 30 12 16 1022.3 - 0.2
02/05:00am 8.3 2.1 4.3 76 1.8 NNE 26 35 14 19 1022.4 - 0.2
02/04:30am 8.3 2.1 4.1 75 1.8 NNE 26 39 14 21 1022.5 - 0.2
02/04:00am 8.0 2.5 4.0 76 1.7 NNE 22 33 12 18 1022.5 - 0.2
02/03:30am 8.2 2.7 4.2 76 1.8 NNE 22 33 12 18 1022.8 - 0.2
02/03:00am 8.1 2.7 4.3 77 1.7 NNE 22 32 12 17 1023.2 1023.2 0.2
02/02:30am 7.8 2.8 4.4 79 1.5 NNE 20 32 11 17 1023.6 - 0.2
02/02:00am 7.7 2.3 4.5 80 1.4 NNE 22 33 12 18 1023.8 - 0.2
02/01:30am 7.4 1.9 4.2 80 1.4 NNE 22 32 12 17 1024.3 - 0.2
02/01:00am 7.2 2.2 4.5 83 1.2 NNE 20 30 11 16 1024.8 - 0.2
02/12:30am 7.1 3.1 4.8 85 1.0 NE 15 22 8 12 1024.9 - 0.2
02/12:00am 7.1 3.1 4.9 86 1.0 NE 15 20 8 11 1024.8 1024.7 0.2
 
Date/Time
WST
Temp
°C
App
Temp
°C
Dew
Point
Rel
Hum
%
Delta-T
°C
Wind Press
QNH
hPa
Press
MSL
hPa
Rain
since 9 am
mm
Dir
 
Spd
km/h
Gust
km/h
Spd
kts
Gust
kts
01/11:30pm 7.4 3.4 4.9 84 1.1 ENE 15 24 8 13 1025.2 - 0.2
01/11:00pm 7.6 3.6 4.9 83 1.2 NE 15 22 8 12 1025.8 - 0.2
01/10:30pm 7.7 3.3 5.0 83 1.2 NE 17 22 9 12 1025.8 - 0.2
01/10:00pm 7.2 3.6 5.0 86 1.0 ENE 13 17 7 9 1025.8 - 0.2
01/09:30pm 7.6 3.6 4.9 83 1.2 ENE 15 20 8 11 1025.8 - 0.2
01/09:00pm 8.1 3.7 5.0 81 1.4 ENE 17 24 9 13 1026.3 1026.3 0.2
01/08:30pm 8.4 4.1 5.3 81 1.4 E 17 22 9 12 1026.0 - 0.2
01/08:00pm 8.9 5.1 5.6 80 1.5 E 15 20 8 11 1026.2 - 0.2
01/07:30pm 9.3 5.5 5.9 79 1.6 E 15 20 8 11 1026.0 - 0.2
01/07:00pm 9.6 5.8 6.0 78 1.7 E 15 20 8 11 1025.8 - 0.2
01/06:30pm 10.0 6.3 6.2 77 1.8 E 15 19 8 10 1025.7 - 0.2
01/06:00pm 10.2 6.5 6.4 77 1.8 E 15 19 8 10 1025.1 1025.0 0.2
01/05:30pm 10.9 6.5 6.6 75 2.0 ESE 19 22 10 12 1024.7 - 0.2
01/05:00pm 12.2 7.7 6.9 70 2.6 ESE 20 26 11 14 1024.7 - 0.2
01/04:30pm 13.5 10.2 8.1 70 2.7 ESE 15 20 8 11 1024.6 - 0.2
01/04:00pm 12.9 9.0 6.9 67 2.9 SE 17 22 9 12 1024.5 - 0.2
01/03:30pm 15.7 12.9 5.0 49 5.1 ENE 9 13 5 7 1024.4 - 0.2
01/03:00pm 15.1 11.5 4.8 50 4.8 ENE 13 19 7 10 1024.3 1024.2 0.2
01/02:30pm 15.3 13.1 5.2 51 4.8 N 6 9 3 5 1024.5 - 0.2
01/02:00pm 13.9 11.3 6.3 60 3.7 N 9 13 5 7 1024.7 - 0.2
01/01:30pm 15.2 12.8 7.0 58 4.1 NE 9 15 5 8 1024.7 - 0.0
01/01:00pm 15.5 13.4 8.3 62 3.7 N 9 17 5 9 1025.0 - 0.0
01/12:30pm 13.2 10.6 5.9 61 3.5 NNE 9 15 5 8 1025.3 - 0.0
01/12:00pm 14.5 12.4 6.8 60 3.7 NE 7 11 4 6 1025.6 1025.5 0.0
01/11:30am 13.5 12.2 6.1 61 3.5 W 2 7 1 4 1025.9 - 0.0
01/11:00am 13.2 10.6 6.3 63 3.3 WNW 9 11 5 6 1026.0 - 0.0
01/10:30am 12.9 11.1 5.6 61 3.4 ENE 4 7 2 4 1026.3 - 0.0
01/10:00am 12.8 10.5 5.9 63 3.3 NE 7 13 4 7 1026.4 - 0.0
01/09:30am 13.0 11.4 6.4 64 3.2 E 4 11 2 6 1026.2 - 0.0
01/09:00am 12.7 11.3 7.4 70 2.6 ESE 4 7 2 4 1026.2 1026.2 2.2
01/08:30am 12.2 11.2 7.3 72 2.4 NNW 2 7 1 4 1025.8 - 2.2
01/08:00am 10.6 9.1 9.0 90 0.8 NW 7 9 4 5 1025.3 - 2.2
01/07:30am 9.4 7.9 8.6 95 0.4 N 6 7 3 4 1024.9 - 2.2
01/07:00am 8.8 7.1 8.5 98 0.1 NNW 7 9 4 5 1024.5 - 2.2
01/06:30am 8.1 6.3 8.0 99 0.0 NW 7 11 4 6 1024.4 - 2.2
01/06:00am 7.6 5.9 7.5 99 0.0 N 6 9 3 5 1023.8 1023.8 2.2
01/05:30am 6.9 4.8 6.8 99 0.0 NNW 7 9 4 5 1023.5 - 2.2
01/05:00am 7.8 6.1 7.7 99 0.0 NNW 6 6 3 3 1023.2 - 2.2
01/04:30am 7.9 6.2 7.6 98 0.1 NNW 6 9 3 5 1022.9 - 2.2
01/04:00am 8.1 6.3 8.0 99 0.0 NW 7 9 4 5 1023.0 - 2.2
01/03:30am 8.0 6.1 7.7 98 0.1 N 7 9 4 5 1022.6 - 2.2
01/03:00am 8.2 6.6 7.9 98 0.1 NNW 6 9 3 5 1022.4 1022.4 2.2
01/02:30am 8.0 5.8 7.7 98 0.1 NW 9 13 5 7 1022.4 - 2.2
01/02:00am 7.1 5.0 6.7 97 0.2 NNW 7 9 4 5 1022.2 - 2.0
01/01:30am 7.3 5.6 6.1 92 0.5 WSW 4 6 2 3 1022.3 - 2.0
01/01:00am 8.8 8.3 7.9 94 0.4 CALM 0 0 0 0 1022.0 - 2.0
01/12:30am 8.5 6.1 7.1 91 0.7 SW 9 11 5 6 1021.9 - 2.0
01/12:00am 9.0 7.2 8.1 94 0.4 SSW 7 9 4 5 1021.9 1021.9 2.0
 
Date/Time
WST
Temp
°C
App
Temp
°C
Dew
Point
Rel
Hum
%
Delta-T
°C
Wind Press
QNH
hPa
Press
MSL
hPa
Rain
since 9 am
mm
Dir
 
Spd
km/h
Gust
km/h
Spd
kts
Gust
kts
31/11:30pm 9.3 7.3 8.5 95 0.4 SSW 9 20 5 11 1021.9 - 2.0
31/11:00pm 9.2 7.6 8.6 96 0.3 SW 7 9 4 5 1021.6 - 2.0
31/10:30pm 8.6 6.8 7.8 95 0.4 W 7 9 4 5 1021.7 - 2.0
31/10:00pm 9.1 7.4 8.5 96 0.3 SSW 7 9 4 5 1021.5 - 2.0
31/09:30pm 9.2 7.1 8.3 94 0.4 WSW 9 13 5 7 1021.3 - 2.0
31/09:29pm 9.3 6.8 8.4 94 0.4 WSW 11 15 6 8 1021.3 - 2.0
31/09:10pm 9.7 7.3 8.8 94 0.4 SW 11 17 6 9 1021.6 - 1.8
31/09:00pm 9.6 7.2 8.5 93 0.5 SSW 11 15 6 8 1021.3 1021.4 1.2
31/08:30pm 8.8 6.9 7.7 93 0.5 SW 7 9 4 5 1021.0 - 1.2
31/08:00pm 8.8 6.2 7.7 93 0.5 SSW 11 13 6 7 1020.6 - 1.2
31/07:30pm 9.6 7.2 8.5 93 0.5 S 11 13 6 7 1020.4 - 1.2
31/07:24pm 9.6 7.2 8.5 93 0.5 SSW 11 13 6 7 1020.6 - 1.2
31/07:10pm 10.1 7.0 8.7 91 0.7 SSW 15 19 8 10 1020.6 - 1.2
31/07:00pm 9.7 7.2 8.0 89 0.8 SW 11 15 6 8 1020.6 - 1.0
31/06:30pm 10.3 7.3 7.7 84 1.3 WSW 13 17 7 9 1020.2 - 1.0
31/06:00pm 10.8 7.9 8.0 83 1.4 SW 13 17 7 9 1019.5 1019.5 1.0
31/05:30pm 11.9 8.3 8.2 78 1.8 SW 17 19 9 10 1019.0 - 1.0
31/05:00pm 12.8 9.8 9.1 78 1.9 SW 15 22 8 12 1018.7 - 1.0
31/04:30pm 13.6 9.2 9.1 74 2.3 SSW 22 32 12 17 1018.4 - 1.0
31/04:00pm 13.9 8.0 8.9 72 2.5 SW 30 39 16 21 1018.2 - 1.0
31/03:30pm 14.8 8.3 8.1 64 3.4 SW 32 39 17 21 1017.9 - 1.0
31/03:00pm 14.4 7.8 7.9 65 3.2 WSW 32 41 17 22 1017.4 1017.4 1.0
31/02:30pm 14.9 9.2 8.2 64 3.4 SW 28 37 15 20 1017.1 - 1.0
31/02:00pm 15.0 9.1 8.9 67 3.1 SW 30 37 16 20 1017.2 - 1.0
31/01:30pm 15.7 11.2 10.2 70 2.9 WSW 24 33 13 18 1017.1 - 1.0
31/01:00pm 14.0 9.6 10.4 79 1.9 W 24 32 13 17 1017.3 - 1.0
31/12:30pm 11.7 8.2 10.3 91 0.7 W 19 26 10 14 1017.5 - 1.0
31/12:00pm 11.4 6.0 9.5 88 1.0 SW 28 44 15 24 1017.8 1017.8 0.6
31/11:49am 12.8 6.7 9.8 82 1.5 WSW 32 50 17 27 1017.5 - 0.4
31/11:30am 15.7 12.3 11.1 74 2.5 W 20 32 11 17 1017.4 - 0.0
31/11:00am 14.4 11.1 10.8 79 1.9 W 19 26 10 14 1017.7 - 0.0
31/10:30am 13.9 10.3 9.7 76 2.2 W 19 24 10 13 1017.9 - 0.0
31/10:00am 12.6 10.1 11.0 90 0.8 W 15 20 8 11 1017.9 - 0.0
31/09:32am 11.6 9.2 11.3 98 0.2 W 15 20 8 11 1017.9 - 0.0
31/09:30am 11.8 9.5 11.6 99 0.1 W 15 20 8 11 1017.9 - 0.0
31/09:26am 11.3 8.4 11.1 99 0.1 W 17 24 9 13 1018.0 - 0.0
31/09:21am 11.2 8.3 11.0 99 0.1 WSW 17 24 9 13 1018.1 - 0.0
31/09:00am 11.6 10.0 11.4 99 0.1 WSW 11 15 6 8 1017.9 1017.9 13.0
31/08:46am 11.2 9.1 11.0 99 0.1 WSW 13 15 7 8 1017.7 - 13.0
31/08:30am 11.1 8.6 10.9 99 0.1 WSW 15 19 8 10 1017.9 - 13.0
31/08:00am 11.1 9.7 10.9 99 0.1 NW 9 13 5 7 1017.5 - 12.8
31/07:30am 10.8 9.3 10.6 99 0.1 NW 9 11 5 6 1017.2 - 12.8
31/07:00am 10.6 9.4 10.4 99 0.1 NNW 7 9 4 5 1017.1 - 12.8
31/06:30am 10.5 9.5 10.3 99 0.1 W 6 7 3 4 1016.9 - 12.8
31/06:02am 10.5 8.9 10.3 99 0.1 S 9 11 5 6 1016.5 - 12.8
31/06:00am 10.5 8.9 10.3 99 0.1 S 9 11 5 6 1016.5 1016.6 12.8
31/05:59am 10.5 8.9 10.3 99 0.1 S 9 11 5 6 1016.5 - 12.8
31/05:30am 10.9 9.1 10.7 99 0.1 SSW 11 17 6 9 1016.4 - 12.6
31/05:03am 10.9 7.9 10.7 99 0.1 SSW 17 20 9 11 1016.2 - 11.4
31/05:01am 10.9 8.3 10.7 99 0.1 SSW 15 20 8 11 1016.2 - 11.4
31/05:00am 11.0 8.4 10.8 99 0.1 SSW 15 20 8 11 1016.2 - 11.4
31/04:33am 11.2 7.7 11.0 99 0.1 SW 20 24 11 13 1016.0 - 11.2
31/04:30am 11.5 8.7 11.3 99 0.1 W 17 20 9 11 1016.1 - 11.2
31/04:25am 11.5 9.1 11.3 99 0.1 W 15 20 8 11 1016.0 - 11.2
31/04:00am 11.3 10.0 11.1 99 0.1 WNW 9 11 5 6 1015.5 - 11.2
31/03:30am 11.5 11.9 11.3 99 0.1 CALM 0 0 0 0 1015.4 - 11.2
31/03:00am 11.5 11.9 11.3 99 0.1 CALM 0 0 0 0 1015.3 1015.4 11.2
31/02:47am 11.7 12.2 11.5 99 0.1 CALM 0 0 0 0 1015.2 - 11.2
31/02:34am 11.8 12.3 11.6 99 0.1 CALM 0 0 0 0 1015.1 - 11.2
31/02:30am 11.8 12.3 11.6 99 0.1 CALM 0 0 0 0 1015.3 - 11.2
31/02:00am 11.8 12.3 11.6 99 0.1 CALM 0 0 0 0 1015.6 - 11.0
31/01:30am 11.6 12.0 11.4 99 0.1 CALM 0 0 0 0 1015.6 - 11.0
31/01:00am 11.6 10.3 11.4 99 0.1 S 9 11 5 6 1015.7 - 11.0
31/12:36am 11.8 10.2 11.6 99 0.1 SSW 11 13 6 7 1016.0 - 11.0
31/12:30am 11.8 10.2 11.6 99 0.1 SSW 11 13 6 7 1016.0 - 11.0
31/12:17am 11.9 10.0 11.7 99 0.1 S 13 17 7 9 1016.1 - 11.0
31/12:00am 12.1 10.2 11.9 99 0.1 S 13 20 7 11 1016.4 1016.5 11.0
 
Date/Time
WST
Temp
°C
App
Temp
°C
Dew
Point
Rel
Hum
%
Delta-T
°C
Wind Press
QNH
hPa
Press
MSL
hPa
Rain
since 9 am
mm
Dir
 
Spd
km/h
Gust
km/h
Spd
kts
Gust
kts
30/11:44pm 12.3 9.3 12.1 99 0.1 S 19 24 10 13 1016.4 - 11.0
30/11:34pm 12.6 12.2 12.4 99 0.1 SW 6 9 3 5 1016.3 - 10.6
30/11:30pm 12.6 12.6 12.4 99 0.1 WSW 4 7 2 4 1016.3 - 10.6
30/11:19pm 12.6 12.2 12.4 99 0.1 WSW 6 9 3 5 1016.2 - 10.6
30/11:15pm 12.6 12.0 12.4 99 0.1 WSW 7 9 4 5 1016.3 - 10.6
30/11:00pm 12.5 11.9 12.3 99 0.1 SW 7 11 4 6 1016.1 - 10.6
30/10:43pm 12.5 11.9 12.3 99 0.1 WSW 7 9 4 5 1016.2 - 10.6
30/10:36pm 12.6 12.6 12.4 99 0.1 W 4 7 2 4 1016.4 - 10.6
30/10:30pm 12.5 13.2 12.3 99 0.1 CALM 0 6 0 3 1016.5 - 10.6
30/10:00pm 12.6 12.6 12.4 99 0.1 SW 4 7 2 4 1016.9 - 10.2
30/09:36pm 12.5 12.8 12.3 99 0.1 SW 2 6 1 3 1016.6 - 10.0

Other Formats:

Comma delimited format used in spreadsheet applications
http://www.bom.gov.au/fwo/IDW60801/IDW60801.95638.axf

JavaScript Object Notation format (JSON) in row-major order
http://www.bom.gov.au/fwo/IDW60801/IDW60801.95638.json